Time;durP1;ratioP1;P1;durP2;ratioP2;P2;SDS_P1;SDS_P2;PMS_P1;PMS_P2;Temp;Humidity;BMP_temperature;BMP_pressure;BME280_temperature;BME280_humidity;BME280_pressure;Samples;Min_cycle;Max_cycle;Signal;HPM_P1;HPM_P2
2021/05/02 00:00:36;;;;;;;4.25;2.45;;;;;;;;;;5068191;28;20107;-70
2021/05/02 00:03:04;;;;;;;7.20;3.10;;;;;;;;;;5072186;28;20359;-71
2021/05/02 00:05:31;;;;;;;5.32;2.88;;;;;;;;;;5075323;28;20104;-71
2021/05/02 00:07:57;;;;;;;4.63;2.10;;;;;;;;;;5072366;28;20036;-70
2021/05/02 00:10:25;;;;;;;7.28;2.17;;;;;;;;;;5071654;28;20033;-70
2021/05/02 00:12:51;;;;;;;4.00;2.40;;;;;;;;;;5067930;28;20390;-70
2021/05/02 00:15:19;;;;;;;5.75;2.20;;;;;;;;;;5067794;28;20406;-70
2021/05/02 00:17:46;;;;;;;5.72;2.10;;;;;;;;;;5076847;28;20024;-71
2021/05/02 00:20:13;;;;;;;5.18;2.10;;;;;;;;;;5082557;28;20024;-70
2021/05/02 00:22:43;;;;;;;4.72;2.13;;;;;;;;;;5066749;28;20031;-71
2021/05/02 00:25:10;;;;;;;4.85;2.10;;;;;;;;;;5076580;28;20023;-72
2021/05/02 00:27:36;;;;;;;5.22;2.15;;;;;;;;;;5070150;28;20070;-70
2021/05/02 00:30:03;;;;;;;3.67;2.25;;;;;;;;;;5084903;28;20031;-70
2021/05/02 00:32:29;;;;;;;2.88;1.80;;;;;;;;;;5073258;28;20032;-71
2021/05/02 00:34:56;;;;;;;5.63;2.25;;;;;;;;;;5082227;28;20070;-70
2021/05/02 00:37:23;;;;;;;6.05;2.17;;;;;;;;;;5067245;28;20046;-71
2021/05/02 00:39:49;;;;;;;4.72;1.80;;;;;;;;;;5071639;28;20020;-71
2021/05/02 00:42:21;;;;;;;5.13;2.00;;;;;;;;;;5072360;28;20036;-71
2021/05/02 00:44:47;;;;;;;4.70;2.10;;;;;;;;;;5067622;28;20368;-71
2021/05/02 00:47:17;;;;;;;5.05;1.95;;;;;;;;;;5074673;28;20115;-71
2021/05/02 00:49:48;;;;;;;5.75;2.17;;;;;;;;;;5073750;28;20118;-70
2021/05/02 00:52:20;;;;;;;3.97;2.08;;;;;;;;;;5064500;28;20425;-71
2021/05/02 00:54:48;;;;;;;4.40;2.10;;;;;;;;;;5076426;28;20041;-71
2021/05/02 00:57:26;;;;;;;4.90;2.30;;;;;;;;;;5078960;28;20028;-71
2021/05/02 00:59:57;;;;;;;6.45;2.00;;;;;;;;;;5071764;28;20047;-71
2021/05/02 01:02:28;;;;;;;5.53;2.30;;;;;;;;;;5078163;28;20033;-70
2021/05/02 01:04:58;;;;;;;5.28;2.10;;;;;;;;;;5079065;28;20059;-70
2021/05/02 01:07:28;;;;;;;9.07;2.42;;;;;;;;;;5076608;28;20067;-71
2021/05/02 01:09:57;;;;;;;8.32;2.33;;;;;;;;;;5075596;28;20366;-70
2021/05/02 01:12:23;;;;;;;6.78;2.00;;;;;;;;;;5075666;28;20025;-71
2021/05/02 01:14:54;;;;;;;2.97;1.80;;;;;;;;;;5073158;28;20406;-71
2021/05/02 01:17:20;;;;;;;8.02;2.30;;;;;;;;;;5072518;28;20111;-70
2021/05/02 01:19:48;;;;;;;4.88;1.90;;;;;;;;;;5073533;28;20077;-71
2021/05/02 01:22:16;;;;;;;4.50;2.00;;;;;;;;;;5072518;28;20103;-70
2021/05/02 01:24:47;;;;;;;7.55;2.10;;;;;;;;;;5077430;28;20020;-71
2021/05/02 01:27:20;;;;;;;7.15;2.30;;;;;;;;;;5067590;28;20031;-72
2021/05/02 01:29:46;;;;;;;7.45;2.33;;;;;;;;;;5074244;28;20020;-72
2021/05/02 01:32:13;;;;;;;4.05;2.10;;;;;;;;;;5074231;28;20055;-71
2021/05/02 01:34:40;;;;;;;6.32;2.38;;;;;;;;;;5072985;28;20032;-72
2021/05/02 01:37:11;;;;;;;6.95;2.60;;;;;;;;;;5073398;28;20027;-72
2021/05/02 01:39:38;;;;;;;7.65;2.72;;;;;;;;;;5072004;28;20504;-70
2021/05/02 01:42:05;;;;;;;6.97;2.25;;;;;;;;;;5063033;28;20048;-71
2021/05/02 01:44:31;;;;;;;5.60;2.28;;;;;;;;;;5072058;28;20032;-72
2021/05/02 01:47:05;;;;;;;7.60;2.40;;;;;;;;;;5080867;28;20036;-72
2021/05/02 01:49:33;;;;;;;5.00;2.30;;;;;;;;;;5073007;28;20028;-70
2021/05/02 01:51:59;;;;;;;5.05;2.50;;;;;;;;;;5069926;28;20016;-72
2021/05/02 01:54:34;;;;;;;5.65;2.30;;;;;;;;;;5074073;28;20039;-72
2021/05/02 01:57:00;;;;;;;7.53;2.25;;;;;;;;;;5074247;28;20017;-69
2021/05/02 01:59:26;;;;;;;6.85;2.50;;;;;;;;;;5076258;28;20473;-69
2021/05/02 02:01:53;;;;;;;4.75;2.05;;;;;;;;;;5069472;28;20033;-70
2021/05/02 02:04:24;;;;;;;5.88;2.00;;;;;;;;;;5072079;28;20044;-72
2021/05/02 02:06:50;;;;;;;7.55;2.60;;;;;;;;;;5080698;28;20065;-72
2021/05/02 02:09:18;;;;;;;6.85;2.30;;;;;;;;;;5079101;28;20033;-72
2021/05/02 02:11:44;;;;;;;3.58;2.00;;;;;;;;;;5080168;28;20040;-72
2021/05/02 02:14:10;;;;;;;5.68;2.30;;;;;;;;;;5070777;28;20446;-69
2021/05/02 02:16:41;;;;;;;5.50;2.22;;;;;;;;;;5078479;28;20035;-71
2021/05/02 02:19:07;;;;;;;4.10;1.98;;;;;;;;;;5083863;28;20028;-69
2021/05/02 02:21:34;;;;;;;6.97;2.28;;;;;;;;;;5080750;28;20021;-71
2021/05/02 02:24:00;;;;;;;6.82;1.95;;;;;;;;;;5074069;28;20451;-70
2021/05/02 02:26:35;;;;;;;3.28;1.92;;;;;;;;;;5075611;28;20050;-70
2021/05/02 02:29:10;;;;;;;8.25;2.92;;;;;;;;;;5076785;28;20103;-72
2021/05/02 02:31:36;;;;;;;5.43;2.20;;;;;;;;;;5079983;28;20028;-72
2021/05/02 02:34:04;;;;;;;5.28;2.25;;;;;;;;;;5075862;28;20056;-72
2021/05/02 02:36:31;;;;;;;6.63;2.33;;;;;;;;;;5064731;28;20056;-70
2021/05/02 02:38:58;;;;;;;5.75;2.28;;;;;;;;;;5069415;28;20036;-72
2021/05/02 02:41:24;;;;;;;11.15;3.17;;;;;;;;;;5066076;28;20032;-70
2021/05/02 02:43:56;;;;;;;6.88;2.70;;;;;;;;;;5078585;28;20048;-71
2021/05/02 02:46:23;;;;;;;5.68;2.15;;;;;;;;;;5075724;28;20024;-72
2021/05/02 02:49:00;;;;;;;7.45;2.30;;;;;;;;;;5072746;28;20044;-72
2021/05/02 02:51:27;;;;;;;7.25;2.75;;;;;;;;;;5065911;28;20032;-72
2021/05/02 02:53:55;;;;;;;5.75;2.50;;;;;;;;;;5071622;28;20037;-72
2021/05/02 02:56:23;;;;;;;7.57;2.42;;;;;;;;;;5085250;28;20028;-71
2021/05/02 02:58:59;;;;;;;6.05;1.98;;;;;;;;;;5073992;28;20414;-71
2021/05/02 03:01:26;;;;;;;6.65;2.42;;;;;;;;;;5074001;28;20539;-70
2021/05/02 03:03:53;;;;;;;7.53;2.45;;;;;;;;;;5073940;28;20488;-71
2021/05/02 03:06:20;;;;;;;4.65;2.38;;;;;;;;;;5067030;28;20029;-69
2021/05/02 03:08:48;;;;;;;10.38;2.55;;;;;;;;;;5067490;28;20024;-70
2021/05/02 03:11:15;;;;;;;5.85;2.50;;;;;;;;;;5068883;28;20031;-72
2021/05/02 03:13:43;;;;;;;6.75;2.40;;;;;;;;;;5071339;28;20042;-70
2021/05/02 03:16:09;;;;;;;4.28;2.13;;;;;;;;;;5069793;28;20027;-71
2021/05/02 03:18:41;;;;;;;8.68;2.45;;;;;;;;;;5078703;28;20033;-71
2021/05/02 03:21:08;;;;;;;6.47;2.55;;;;;;;;;;5069711;28;20028;-69
2021/05/02 03:23:34;;;;;;;7.07;2.70;;;;;;;;;;5074926;28;20378;-71
2021/05/02 03:26:02;;;;;;;6.43;2.35;;;;;;;;;;5075872;28;20021;-72
2021/05/02 03:28:33;;;;;;;4.57;2.35;;;;;;;;;;5074430;28;20389;-72
2021/05/02 03:31:01;;;;;;;5.78;2.15;;;;;;;;;;5078690;28;20032;-72
2021/05/02 03:33:28;;;;;;;6.72;2.40;;;;;;;;;;5083149;28;20028;-71
2021/05/02 03:35:55;;;;;;;6.43;2.47;;;;;;;;;;5075969;28;20036;-71
2021/05/02 03:38:30;;;;;;;7.10;2.40;;;;;;;;;;5074911;28;20075;-70
2021/05/02 03:40:59;;;;;;;9.25;2.70;;;;;;;;;;5070641;28;20032;-69
2021/05/02 03:43:25;;;;;;;7.80;2.45;;;;;;;;;;5069937;28;20042;-72
2021/05/02 03:45:51;;;;;;;5.43;2.22;;;;;;;;;;5071287;28;20043;-69
2021/05/02 03:48:18;;;;;;;7.00;2.13;;;;;;;;;;5072901;28;20087;-72
2021/05/02 03:50:44;;;;;;;5.35;2.22;;;;;;;;;;5064140;28;20099;-71
2021/05/02 03:53:10;;;;;;;7.53;2.50;;;;;;;;;;5072307;28;20382;-70
2021/05/02 03:55:44;;;;;;;5.93;2.50;;;;;;;;;;5083274;28;20036;-72
2021/05/02 03:58:14;;;;;;;7.85;2.42;;;;;;;;;;5072326;28;20131;-72
2021/05/02 04:00:41;;;;;;;8.25;3.63;;;;;;;;;;5069498;28;20021;-73
2021/05/02 04:03:07;;;;;;;6.45;2.60;;;;;;;;;;5070732;28;20040;-71
2021/05/02 04:05:34;;;;;;;7.18;2.53;;;;;;;;;;5073730;28;20048;-72
2021/05/02 04:08:00;;;;;;;10.95;2.60;;;;;;;;;;5075035;28;20099;-72
2021/05/02 04:10:27;;;;;;;10.90;2.90;;;;;;;;;;5076815;28;20034;-72
2021/05/02 04:12:53;;;;;;;6.13;2.60;;;;;;;;;;5069840;28;20071;-72
2021/05/02 04:15:19;;;;;;;8.13;2.53;;;;;;;;;;5074731;28;20040;-69
2021/05/02 04:17:45;;;;;;;8.13;2.90;;;;;;;;;;5073353;28;20025;-69
2021/05/02 04:20:50;;;;;;;8.73;2.60;;;;;;;;;;5078173;28;20081;-80
2021/05/02 04:23:42;;;;;;;7.55;2.55;;;;;;;;;;5074064;28;20113;-77
2021/05/02 04:26:08;;;;;;;11.13;2.72;;;;;;;;;;5072163;28;20102;-76
2021/05/02 04:28:34;;;;;;;8.80;3.00;;;;;;;;;;5065646;28;20029;-82
2021/05/02 04:31:03;;;;;;;6.57;2.70;;;;;;;;;;5072706;28;20029;-82
2021/05/02 04:33:43;;;;;;;9.38;2.72;;;;;;;;;;5073926;28;20028;-73
2021/05/02 04:36:12;;;;;;;8.05;2.58;;;;;;;;;;5068204;28;20489;-87
2021/05/02 04:38:38;;;;;;;8.13;2.97;;;;;;;;;;5068025;28;20035;-77
2021/05/02 04:41:04;;;;;;;7.35;2.65;;;;;;;;;;5064766;28;20482;-77
2021/05/02 04:43:30;;;;;;;11.07;2.88;;;;;;;;;;5069578;28;20040;-78
2021/05/02 04:45:56;;;;;;;10.18;2.72;;;;;;;;;;5074922;28;20577;-78
2021/05/02 04:48:22;;;;;;;8.82;3.05;;;;;;;;;;5075478;28;20028;-77
2021/05/02 04:50:48;;;;;;;7.82;2.80;;;;;;;;;;5073495;28;20120;-78
2021/05/02 04:53:14;;;;;;;10.23;3.13;;;;;;;;;;5075082;28;20107;-77
2021/05/02 04:55:41;;;;;;;12.30;2.90;;;;;;;;;;5070787;28;20037;-77
2021/05/02 04:58:08;;;;;;;8.05;3.15;;;;;;;;;;5070838;28;20116;-73
2021/05/02 05:00:34;;;;;;;9.98;3.22;;;;;;;;;;5072553;28;20021;-79
2021/05/02 05:03:01;;;;;;;13.30;3.50;;;;;;;;;;5070928;28;20540;-78
2021/05/02 05:05:28;;;;;;;11.18;2.75;;;;;;;;;;5074166;28;20028;-73
2021/05/02 05:07:54;;;;;;;8.82;2.70;;;;;;;;;;5070566;28;20032;-81
2021/05/02 05:10:20;;;;;;;54.25;6.07;;;;;;;;;;5074081;28;20028;-74
2021/05/02 05:12:46;;;;;;;9.18;2.88;;;;;;;;;;5071894;28;20486;-76
2021/05/02 05:15:51;;;;;;;7.80;3.00;;;;;;;;;;5076791;28;20047;-77
2021/05/02 05:18:17;;;;;;;9.43;2.78;;;;;;;;;;5069861;28;20149;-78
2021/05/02 05:20:43;;;;;;;8.70;2.90;;;;;;;;;;5072703;28;20557;-75
2021/05/02 05:23:09;;;;;;;9.95;2.95;;;;;;;;;;5078867;28;20032;-77
2021/05/02 05:25:35;;;;;;;11.38;3.35;;;;;;;;;;5072543;28;20121;-77
2021/05/02 05:28:01;;;;;;;10.27;3.13;;;;;;;;;;5072136;28;20039;-90
2021/05/02 05:30:29;;;;;;;13.50;3.70;;;;;;;;;;5066661;28;20028;-77
2021/05/02 05:33:05;;;;;;;14.02;3.60;;;;;;;;;;5070726;28;20049;-86
2021/05/02 05:35:31;;;;;;;29.73;18.83;;;;;;;;;;5067019;28;20849;-82
2021/05/02 05:37:58;;;;;;;18.55;9.35;;;;;;;;;;5067879;28;20472;-89
2021/05/02 05:40:25;;;;;;;17.58;5.70;;;;;;;;;;5065849;28;20081;-86
2021/05/02 05:42:51;;;;;;;8.02;3.80;;;;;;;;;;5068369;28;20036;-80
2021/05/02 05:45:23;;;;;;;12.93;3.75;;;;;;;;;;5069233;28;20028;-85
2021/05/02 05:47:53;;;;;;;12.95;3.42;;;;;;;;;;5070537;28;20435;-85
2021/05/02 05:50:20;;;;;;;12.68;3.97;;;;;;;;;;5066543;28;20045;-80
2021/05/02 05:53:03;;;;;;;;;;;;;;;;;;;;;
2021/05/02 05:55:29;;;;;;;19.73;4.60;;;;;;;;;;5064273;28;20043;-79
2021/05/02 05:57:55;;;;;;;13.75;3.83;;;;;;;;;;5067605;28;20688;-74
2021/05/02 06:00:22;;;;;;;16.08;4.75;;;;;;;;;;5068270;28;20032;-73
2021/05/02 06:02:48;;;;;;;18.10;3.95;;;;;;;;;;5067232;28;20516;-80
2021/05/02 06:05:15;;;;;;;12.32;3.40;;;;;;;;;;5072005;28;20034;-76
2021/05/02 06:07:41;;;;;;;11.98;3.63;;;;;;;;;;5069624;28;20382;-80
2021/05/02 06:10:08;;;;;;;10.48;3.20;;;;;;;;;;5070860;28;20032;-79
2021/05/02 06:12:34;;;;;;;16.02;4.15;;;;;;;;;;5068005;28;20064;-79
2021/05/02 06:15:01;;;;;;;9.68;3.60;;;;;;;;;;5067156;28;20494;-86
2021/05/02 06:17:28;;;;;;;15.00;3.75;;;;;;;;;;5070223;28;20075;-74
2021/05/02 06:19:54;;;;;;;12.60;3.65;;;;;;;;;;5064290;28;20375;-78
2021/05/02 06:22:20;;;;;;;14.70;3.78;;;;;;;;;;5067948;28;20486;-75
2021/05/02 06:24:46;;;;;;;12.15;3.95;;;;;;;;;;5070667;28;20051;-75
2021/05/02 06:27:13;;;;;;;14.05;3.72;;;;;;;;;;5070246;28;20108;-76
2021/05/02 06:29:39;;;;;;;15.57;4.10;;;;;;;;;;5063682;28;20546;-74
2021/05/02 06:32:05;;;;;;;17.60;4.50;;;;;;;;;;5064291;28;20029;-75
2021/05/02 06:34:34;;;;;;;23.00;4.90;;;;;;;;;;5070178;28;20066;-84
2021/05/02 06:37:00;;;;;;;15.80;5.55;;;;;;;;;;5065397;28;20025;-82
2021/05/02 06:39:26;;;;;;;19.50;5.35;;;;;;;;;;5066095;28;20028;-81
2021/05/02 06:41:53;;;;;;;20.35;4.65;;;;;;;;;;5070956;28;20402;-82
2021/05/02 06:44:19;;;;;;;18.55;4.40;;;;;;;;;;5067105;28;20387;-81
2021/05/02 06:46:45;;;;;;;15.73;4.93;;;;;;;;;;5071729;28;20602;-81
2021/05/02 06:49:15;;;;;;;15.93;4.95;;;;;;;;;;5065715;28;20020;-78
2021/05/02 06:51:41;;;;;;;19.48;5.65;;;;;;;;;;5067398;28;20029;-76
2021/05/02 06:54:08;;;;;;;22.15;7.40;;;;;;;;;;5072302;28;20034;-76
2021/05/02 06:56:34;;;;;;;18.00;4.75;;;;;;;;;;5072590;28;20036;-73
2021/05/02 06:59:01;;;;;;;16.25;3.92;;;;;;;;;;5065355;28;20041;-75
2021/05/02 07:01:27;;;;;;;19.00;4.85;;;;;;;;;;5071665;28;20039;-75
2021/05/02 07:03:53;;;;;;;15.90;5.15;;;;;;;;;;5071969;28;20511;-75
2021/05/02 07:06:19;;;;;;;19.55;6.05;;;;;;;;;;5071056;28;20067;-72
2021/05/02 07:08:46;;;;;;;22.02;6.53;;;;;;;;;;5066328;28;20054;-71
2021/05/02 07:11:12;;;;;;;18.80;6.18;;;;;;;;;;5064558;28;20482;-71
2021/05/02 07:13:58;;;;;;;23.27;7.35;;;;;;;;;;5066074;28;20362;-73
2021/05/02 07:16:30;;;;;;;17.67;5.47;;;;;;;;;;5060283;28;20033;-72
2021/05/02 07:19:20;;;;;;;20.30;4.07;;;;;;;;;;5071756;28;20020;-72
2021/05/02 07:21:46;;;;;;;14.60;4.25;;;;;;;;;;5071787;28;20028;-71
2021/05/02 07:24:50;;;;;;;13.50;4.65;;;;;;;;;;5071971;28;20035;-73
2021/05/02 07:27:19;;;;;;;;;;;;;;;;;;4971492;28;20061;-73
2021/05/02 07:29:45;;;;;;;19.25;5.38;;;;;;;;;;4971713;28;19913;-72
2021/05/02 07:32:11;;;;;;;15.98;4.50;;;;;;;;;;4988225;28;20031;-73
2021/05/02 07:34:37;;;;;;;20.30;5.18;;;;;;;;;;4989787;28;20030;-73
2021/05/02 07:37:14;;;;;;;20.08;5.10;;;;;;;;;;4987856;28;20046;-72
2021/05/02 07:39:41;;;;;;;17.27;4.47;;;;;;;;;;4962566;28;20223;-73
2021/05/02 07:42:13;;;;;;;17.30;4.13;;;;;;;;;;4997738;28;20512;-74
2021/05/02 07:44:45;;;;;;;23.80;5.93;;;;;;;;;;4990018;28;20046;-71
2021/05/02 07:47:11;;;;;;;17.27;4.60;;;;;;;;;;4988943;28;20058;-71
2021/05/02 07:49:37;;;;;;;18.58;4.80;;;;;;;;;;4983733;28;20105;-73
2021/05/02 07:52:11;;;;;;;20.92;4.93;;;;;;;;;;4984392;28;20023;-73
2021/05/02 07:54:47;;;;;;;19.02;4.00;;;;;;;;;;4971278;28;20042;-73
2021/05/02 07:57:13;;;;;;;22.65;4.70;;;;;;;;;;4988828;28;20574;-72
2021/05/02 07:59:39;;;;;;;20.00;4.55;;;;;;;;;;4984777;28;20042;-72
2021/05/02 08:04:57;;;;;;;17.63;4.95;;;;;;;;;;5065381;28;20489;-71
2021/05/02 08:07:23;;;;;;;13.63;4.28;;;;;;;;;;5070473;28;20039;-71
2021/05/02 08:09:49;;;;;;;18.50;4.25;;;;;;;;;;5070481;28;20028;-73
2021/05/02 08:12:17;;;;;;;17.20;4.82;;;;;;;;;;5065788;28;20442;-73
2021/05/02 08:14:43;;;;;;;18.52;4.55;;;;;;;;;;5073327;28;20558;-72
2021/05/02 08:17:09;;;;;;;19.92;5.18;;;;;;;;;;5083474;28;20495;-73
2021/05/02 08:19:35;;;;;;;15.57;5.25;;;;;;;;;;5070349;28;20404;-71
2021/05/02 08:25:06;;;;;;;16.77;4.43;;;;;;;;;;5075770;28;20524;-73
2021/05/02 08:27:33;;;;;;;18.90;4.65;;;;;;;;;;5067106;28;20033;-73
2021/05/02 08:29:59;;;;;;;18.05;4.50;;;;;;;;;;5073501;28;20449;-72
2021/05/02 08:32:25;;;;;;;20.98;4.60;;;;;;;;;;5071331;28;20052;-72
2021/05/02 08:34:51;;;;;;;23.27;5.40;;;;;;;;;;5064984;28;20064;-73
2021/05/02 08:37:17;;;;;;;27.05;5.28;;;;;;;;;;5063435;28;20023;-73
2021/05/02 08:39:44;;;;;;;31.73;6.63;;;;;;;;;;5065888;28;20537;-72
2021/05/02 08:42:12;;;;;;;27.02;5.40;;;;;;;;;;5068914;28;20054;-73
2021/05/02 08:44:38;;;;;;;19.83;5.20;;;;;;;;;;5069240;28;20161;-71
2021/05/02 08:47:05;;;;;;;17.52;4.45;;;;;;;;;;5071535;28;20035;-71
2021/05/02 08:49:31;;;;;;;20.35;5.18;;;;;;;;;;5070202;28;20096;-70
2021/05/02 08:51:57;;;;;;;15.10;4.15;;;;;;;;;;5069873;28;20386;-72
2021/05/02 08:54:40;;;;;;;17.02;4.32;;;;;;;;;;5067587;28;20021;-72
2021/05/02 08:57:27;;;;;;;17.50;4.38;;;;;;;;;;5071511;28;20040;-73
2021/05/02 08:59:53;;;;;;;17.23;4.18;;;;;;;;;;5088598;28;20115;-71
2021/05/02 09:02:23;;;;;;;15.88;4.07;;;;;;;;;;5070075;28;20149;-73
2021/05/02 09:04:53;;;;;;;11.73;4.18;;;;;;;;;;5075808;28;20032;-70
2021/05/02 09:07:19;;;;;;;9.82;3.90;;;;;;;;;;5071201;28;20082;-76
2021/05/02 09:09:45;;;;;;;31.85;5.28;;;;;;;;;;5072468;28;20104;-78
2021/05/02 09:12:22;;;;;;;16.27;3.78;;;;;;;;;;5072464;28;20025;-77
2021/05/02 09:14:48;;;;;;;19.92;4.38;;;;;;;;;;5069321;28;20502;-74
2021/05/02 09:17:40;;;;;;;11.70;3.80;;;;;;;;;;5072500;28;20029;-76
2021/05/02 09:20:06;;;;;;;18.83;4.10;;;;;;;;;;5064696;28;20508;-72
2021/05/02 09:22:32;;;;;;;16.02;4.63;;;;;;;;;;5068612;28;20033;-74
2021/05/02 09:25:10;;;;;;;14.18;4.18;;;;;;;;;;5069228;28;20035;-70
2021/05/02 09:27:47;;;;;;;17.40;4.32;;;;;;;;;;5071671;28;20095;-70
2021/05/02 09:30:17;;;;;;;19.80;4.57;;;;;;;;;;5071610;28;20020;-70
2021/05/02 09:32:48;;;;;;;18.10;4.47;;;;;;;;;;5071573;28;20382;-75
2021/05/02 09:35:31;;;;;;;17.35;4.43;;;;;;;;;;5074268;28;20033;-71
2021/05/02 09:38:09;;;;;;;14.60;3.88;;;;;;;;;;5073761;28;20024;-70
2021/05/02 09:40:46;;;;;;;18.27;4.68;;;;;;;;;;5071030;28;20032;-84
2021/05/02 09:43:32;;;;;;;14.80;4.63;;;;;;;;;;5066072;28;20452;-73
2021/05/02 09:46:08;;;;;;;18.75;4.47;;;;;;;;;;5065386;28;20070;-70
2021/05/02 09:48:34;;;;;;;17.27;4.70;;;;;;;;;;5075966;28;20640;-70
2021/05/02 09:51:20;;;;;;;17.55;4.05;;;;;;;;;;5084109;28;20029;-71
2021/05/02 09:54:19;;;;;;;18.75;4.43;;;;;;;;;;5072540;28;20012;-71
2021/05/02 09:56:53;;;;;;;22.83;4.68;;;;;;;;;;5009693;28;20069;-70
2021/05/02 09:59:39;;;;;;;16.00;4.63;;;;;;;;;;5008202;28;20049;-70
2021/05/02 10:02:11;;;;;;;17.27;4.95;;;;;;;;;;5006139;28;20133;-70
2021/05/02 10:04:46;;;;;;;16.80;4.70;;;;;;;;;;5003225;28;20030;-73
2021/05/02 10:07:13;;;;;;;22.42;5.18;;;;;;;;;;5008837;28;20439;-73
2021/05/02 10:09:39;;;;;;;22.27;4.93;;;;;;;;;;5007602;28;20523;-70
2021/05/02 10:12:06;;;;;;;21.60;5.35;;;;;;;;;;5010122;28;20087;-74
2021/05/02 10:14:35;;;;;;;20.15;4.38;;;;;;;;;;5009923;28;20038;-74
2021/05/02 10:17:29;;;;;;;18.20;4.70;;;;;;;;;;5020219;28;20021;-72
2021/05/02 10:19:55;;;;;;;20.77;5.07;;;;;;;;;;4986290;28;20229;-72
2021/05/02 10:22:22;;;;;;;22.60;4.90;;;;;;;;;;5005575;28;20033;-70
2021/05/02 10:24:49;;;;;;;28.92;11.00;;;;;;;;;;5009493;28;20368;-73
2021/05/02 10:27:15;;;;;;;41.45;17.55;;;;;;;;;;5010369;28;20041;-70
2021/05/02 10:29:41;;;;;;;22.02;6.03;;;;;;;;;;5007873;28;20030;-71
2021/05/02 10:32:11;;;;;;;26.48;7.25;;;;;;;;;;5038139;28;20032;-72
2021/05/02 10:35:07;;;;;;;18.02;5.22;;;;;;;;;;5081108;28;20029;-74
2021/05/02 10:37:34;;;;;;;17.63;5.22;;;;;;;;;;5068834;28;20024;-70
2021/05/02 10:40:02;;;;;;;20.30;5.55;;;;;;;;;;5066696;28;20109;-73
2021/05/02 10:42:41;;;;;;;27.08;5.80;;;;;;;;;;5074159;28;20041;-73
2021/05/02 10:48:17;;;;;;;26.25;5.85;;;;;;;;;;4999683;28;20419;-79
2021/05/02 10:50:45;;;;;;;22.15;6.45;;;;;;;;;;5006564;28;20029;-80
2021/05/02 10:53:14;;;;;;;20.15;5.13;;;;;;;;;;5012309;28;20022;-79
2021/05/02 10:55:48;;;;;;;19.35;6.70;;;;;;;;;;4987744;28;20100;-75
2021/05/02 10:58:32;;;;;;;28.58;10.05;;;;;;;;;;5006490;28;20529;-79
2021/05/02 11:01:04;;;;;;;25.08;8.93;;;;;;;;;;5010915;28;20083;-73
2021/05/02 11:03:36;;;;;;;33.55;10.18;;;;;;;;;;5000577;28;20461;-79
2021/05/02 11:06:04;;;;;;;30.58;12.98;;;;;;;;;;5005449;28;20026;-79
2021/05/02 11:08:49;;;;;;;109.32;78.70;;;;;;;;;;5004987;28;20030;-80
2021/05/02 11:11:33;;;;;;;124.38;82.97;;;;;;;;;;5002406;28;20026;-79
2021/05/02 11:16:35;;;;;;;37.00;12.68;;;;;;;;;;5005027;28;20074;-79
2021/05/02 11:19:01;;;;;;;40.85;16.00;;;;;;;;;;5007653;28;20030;-80
2021/05/02 11:21:55;;;;;;;22.20;5.88;;;;;;;;;;5002520;28;20022;-80
2021/05/02 11:24:47;;;;;;;19.15;5.18;;;;;;;;;;5005200;28;20026;-78
2021/05/02 11:32:31;;;;;;;23.98;5.72;;;;;;;;;;5008285;28;20141;-76
2021/05/02 11:35:00;;;;;;;20.13;4.13;;;;;;;;;;5009996;28;20119;-77
2021/05/02 11:37:50;;;;;;;21.27;5.07;;;;;;;;;;5002967;28;20049;-77
2021/05/02 11:40:19;;;;;;;18.90;5.38;;;;;;;;;;4932153;29;20126;-81
2021/05/02 11:43:00;;;;;;;21.70;5.28;;;;;;;;;;4931684;29;20066;-78
2021/05/02 11:45:31;;;;;;;21.60;4.88;;;;;;;;;;4931349;29;20051;-79
2021/05/02 11:47:57;;;;;;;20.67;5.78;;;;;;;;;;4934802;29;20067;-78
2021/05/02 11:50:24;;;;;;;23.83;4.97;;;;;;;;;;4933840;29;20031;-74
2021/05/02 11:52:51;;;;;;;20.25;5.07;;;;;;;;;;4934897;29;20036;-78
2021/05/02 11:55:27;;;;;;;24.02;5.25;;;;;;;;;;4943716;29;20046;-79
2021/05/02 11:57:53;;;;;;;19.50;5.28;;;;;;;;;;4932130;29;20040;-77
2021/05/02 12:00:38;;;;;;;21.65;5.65;;;;;;;;;;4934263;29;20457;-76
2021/05/02 12:03:08;;;;;;;23.05;4.78;;;;;;;;;;4932694;29;20064;-77
2021/05/02 12:05:45;;;;;;;25.23;5.97;;;;;;;;;;4932354;29;20040;-78
2021/05/02 12:08:12;;;;;;;62.17;7.55;;;;;;;;;;4934546;29;20505;-71
2021/05/02 12:10:39;;;;;;;45.08;6.20;;;;;;;;;;4945212;29;20101;-80
2021/05/02 12:13:07;;;;;;;30.65;5.07;;;;;;;;;;4940233;29;20027;-77
2021/05/02 12:15:34;;;;;;;28.58;5.13;;;;;;;;;;4932227;29;20040;-76
2021/05/02 12:18:01;;;;;;;24.58;5.18;;;;;;;;;;4970232;28;20491;-77
2021/05/02 12:20:27;;;;;;;15.75;3.75;;;;;;;;;;4980717;28;20479;-78
2021/05/02 12:22:54;;;;;;;21.58;4.25;;;;;;;;;;4981134;28;20479;-77
2021/05/02 12:25:20;;;;;;;16.85;4.68;;;;;;;;;;4984206;28;20847;-76
2021/05/02 12:27:59;;;;;;;19.98;3.95;;;;;;;;;;4999372;28;20038;-76
2021/05/02 12:30:28;;;;;;;17.70;4.07;;;;;;;;;;4992682;28;20034;-77
2021/05/02 12:32:55;;;;;;;14.18;4.40;;;;;;;;;;5001789;28;20034;-77
2021/05/02 12:35:23;;;;;;;16.17;3.90;;;;;;;;;;4997550;28;20057;-74
2021/05/02 12:37:49;;;;;;;16.50;4.00;;;;;;;;;;5000079;28;20038;-77
2021/05/02 12:40:15;;;;;;;12.50;3.83;;;;;;;;;;4990002;28;20034;-74
2021/05/02 12:42:44;;;;;;;20.58;4.53;;;;;;;;;;4993297;28;20113;-73
2021/05/02 12:45:11;;;;;;;16.88;4.75;;;;;;;;;;4997278;28;20531;-76
2021/05/02 12:47:41;;;;;;;15.65;4.50;;;;;;;;;;4991528;28;20382;-76
2021/05/02 12:50:08;;;;;;;11.52;4.20;;;;;;;;;;4999853;28;20097;-76
2021/05/02 12:52:35;;;;;;;21.25;5.45;;;;;;;;;;4993682;28;20121;-70
2021/05/02 12:55:17;;;;;;;25.20;6.68;;;;;;;;;;4993793;28;20092;-75
2021/05/02 12:57:48;;;;;;;17.88;5.38;;;;;;;;;;4989989;28;20026;-78
2021/05/02 13:00:15;;;;;;;16.55;6.03;;;;;;;;;;4992423;28;20436;-77
2021/05/02 13:02:46;;;;;;;18.75;6.53;;;;;;;;;;4996082;28;20026;-76
2021/05/02 13:05:14;;;;;;;13.23;6.60;;;;;;;;;;4985176;28;20582;-78
2021/05/02 13:07:42;;;;;;;21.05;8.55;;;;;;;;;;4995017;28;20054;-77
2021/05/02 13:10:27;;;;;;;13.93;5.32;;;;;;;;;;4993401;28;20032;-76
2021/05/02 13:12:56;;;;;;;18.65;4.97;;;;;;;;;;4988103;28;20026;-79
2021/05/02 13:15:26;;;;;;;17.27;4.80;;;;;;;;;;4995677;28;20042;-77
2021/05/02 13:18:03;;;;;;;13.82;4.60;;;;;;;;;;4989198;28;20020;-79
2021/05/02 13:20:45;;;;;;;23.65;5.30;;;;;;;;;;4994330;28;20076;-78
2021/05/02 13:23:11;;;;;;;16.00;4.47;;;;;;;;;;4991517;28;20396;-78
2021/05/02 13:25:37;;;;;;;13.95;4.45;;;;;;;;;;4998463;28;20026;-75
2021/05/02 13:28:08;;;;;;;18.40;5.07;;;;;;;;;;4994897;28;20022;-76
2021/05/02 13:30:35;;;;;;;19.98;5.40;;;;;;;;;;4996756;28;20146;-76
2021/05/02 13:33:05;;;;;;;18.42;5.05;;;;;;;;;;4986577;28;20305;-78
2021/05/02 13:35:48;;;;;;;25.40;6.63;;;;;;;;;;4996260;28;20082;-79
2021/05/02 13:38:15;;;;;;;18.27;5.72;;;;;;;;;;4995335;28;20117;-79
2021/05/02 13:40:44;;;;;;;15.88;6.38;;;;;;;;;;4991646;28;20034;-81
2021/05/02 13:43:12;;;;;;;21.88;6.22;;;;;;;;;;4989821;28;20054;-77
2021/05/02 13:45:40;;;;;;;23.67;6.07;;;;;;;;;;4999756;28;20113;-77
2021/05/02 13:48:07;;;;;;;16.50;4.88;;;;;;;;;;4987157;28;20050;-80
2021/05/02 13:50:33;;;;;;;19.00;4.80;;;;;;;;;;5005510;28;20129;-78
2021/05/02 13:52:59;;;;;;;19.75;5.60;;;;;;;;;;5011270;28;20037;-77
2021/05/02 13:55:25;;;;;;;21.25;5.22;;;;;;;;;;5000926;28;20042;-81
2021/05/02 13:57:52;;;;;;;19.23;5.03;;;;;;;;;;5002033;28;20021;-81
2021/05/02 14:00:18;;;;;;;16.23;4.85;;;;;;;;;;5011641;28;20030;-77
2021/05/02 14:02:45;;;;;;;18.63;4.88;;;;;;;;;;5006584;28;20463;-70
2021/05/02 14:05:12;;;;;;;18.90;5.03;;;;;;;;;;5009639;28;20030;-76
2021/05/02 14:07:38;;;;;;;16.65;5.22;;;;;;;;;;5010688;28;20372;-74
2021/05/02 14:10:05;;;;;;;16.95;5.18;;;;;;;;;;5004848;28;20379;-76
2021/05/02 14:12:31;;;;;;;18.30;5.32;;;;;;;;;;5013193;28;20033;-76
2021/05/02 14:14:57;;;;;;;22.15;5.38;;;;;;;;;;5010368;28;20021;-77
2021/05/02 14:17:26;;;;;;;16.75;5.03;;;;;;;;;;5007480;28;20480;-77
2021/05/02 14:19:55;;;;;;;23.33;5.78;;;;;;;;;;5003967;28;20178;-73
2021/05/02 14:22:22;;;;;;;21.83;5.60;;;;;;;;;;5007911;28;20492;-77
2021/05/02 14:24:48;;;;;;;17.48;4.97;;;;;;;;;;5002211;28;20080;-76
2021/05/02 14:27:14;;;;;;;25.48;5.78;;;;;;;;;;5000228;28;20033;-70
2021/05/02 14:29:40;;;;;;;20.80;4.72;;;;;;;;;;5007192;28;20484;-76
2021/05/02 14:32:07;;;;;;;25.98;5.32;;;;;;;;;;5001698;28;20025;-74
2021/05/02 14:34:35;;;;;;;23.02;5.22;;;;;;;;;;5001431;28;20110;-69
2021/05/02 14:37:01;;;;;;;23.15;5.32;;;;;;;;;;5005805;28;20626;-76
2021/05/02 14:39:30;;;;;;;17.75;4.38;;;;;;;;;;5002130;28;20057;-74
2021/05/02 14:41:56;;;;;;;20.50;5.22;;;;;;;;;;5011456;28;20032;-75
2021/05/02 14:44:22;;;;;;;16.75;4.45;;;;;;;;;;5005461;28;20030;-74
2021/05/02 14:46:49;;;;;;;16.40;4.60;;;;;;;;;;5008931;28;20045;-77
2021/05/02 14:49:15;;;;;;;20.42;4.93;;;;;;;;;;5008364;28;20439;-71
2021/05/02 14:51:41;;;;;;;18.95;4.88;;;;;;;;;;5011769;28;20392;-73
2021/05/02 14:54:07;;;;;;;14.35;4.18;;;;;;;;;;5012045;28;20030;-75
2021/05/02 14:56:34;;;;;;;18.45;4.72;;;;;;;;;;5010947;28;20463;-73
2021/05/02 14:59:00;;;;;;;16.45;4.50;;;;;;;;;;5004424;28;20077;-73
2021/05/02 15:01:26;;;;;;;15.50;4.68;;;;;;;;;;5011851;28;20435;-75
2021/05/02 15:03:53;;;;;;;16.23;4.45;;;;;;;;;;5011968;28;20032;-75
2021/05/02 15:06:19;;;;;;;13.63;4.35;;;;;;;;;;5006692;28;20026;-74